RJTR(METAR)
08/24 02:35
RJTR 231735Z AUTO 00000KT 9SM FEW110 23/21 A2973 RMK AO2 RAE35
SLP067 $=
戻る
トップページへ戻る
IMOC Co,.Ltd.